Terminal Aerodrome Forecast
Issued by NWS Cleveland, OH

Home | Current Version | Previous Version | Text Only | Print | Product List | Glossary On
Versions: 1 2 3 4 5 6 7 8 9 10 11 12 13 14 15 16
014
FTUS41 KCLE 042323
TAFCAK
TAF
KCAK 042323Z 0500/0524 11010KT P6SM OVC100
     FM050300 15010KT 5SM -RA BR OVC015
      TEMPO 0503/0505 3SM -RASN BR OVC003
     FM050500 22012KT 6SM -RASN OVC008
     FM051200 28010KT P6SM OVC015
     FM052100 25004KT P6SM OVC035
     FM052300 VRB02KT P6SM BKN250=

USA.gov is the U.S. government's official web portal to all federal, state and local government web resources and services.